sensor_id;sensor_type;location;lat;lon;timestamp;P1;durP1;ratioP1;P2;durP2;ratioP2
13204;SDS011;6667;52.634;9.226;2023-04-06T06:11:09;11.10;;;8.20;;
13204;SDS011;6667;52.634;9.226;2023-04-06T06:13:36;11.47;;;8.33;;
13204;SDS011;6667;52.634;9.226;2023-04-06T06:16:03;14.37;;;8.37;;
13204;SDS011;6667;52.634;9.226;2023-04-06T06:18:30;12.47;;;8.67;;
13204;SDS011;6667;52.634;9.226;2023-04-06T06:20:56;12.47;;;8.20;;
13204;SDS011;6667;52.634;9.226;2023-04-06T06:26:00;11.07;;;7.50;;
13204;SDS011;6667;52.634;9.226;2023-04-06T06:28:28;8.60;;;6.60;;
13204;SDS011;6667;52.634;9.226;2023-04-06T06:30:55;10.77;;;7.00;;
13204;SDS011;6667;52.634;9.226;2023-04-06T06:33:21;10.50;;;6.50;;
13204;SDS011;6667;52.634;9.226;2023-04-06T06:35:49;9.07;;;7.00;;
13204;SDS011;6667;52.634;9.226;2023-04-06T06:38:17;9.60;;;7.63;;
13204;SDS011;6667;52.634;9.226;2023-04-06T06:40:44;10.90;;;6.70;;
13204;SDS011;6667;52.634;9.226;2023-04-06T06:43:12;9.40;;;6.17;;
13204;SDS011;6667;52.634;9.226;2023-04-06T06:45:40;8.20;;;6.23;;
13204;SDS011;6667;52.634;9.226;2023-04-06T06:48:06;10.00;;;6.20;;
13204;SDS011;6667;52.634;9.226;2023-04-06T06:50:33;8.13;;;6.40;;
13204;SDS011;6667;52.634;9.226;2023-04-06T06:52:59;9.13;;;6.10;;
13204;SDS011;6667;52.634;9.226;2023-04-06T06:55:26;11.47;;;6.80;;
13204;SDS011;6667;52.634;9.226;2023-04-06T06:57:53;8.87;;;6.37;;
13204;SDS011;6667;52.634;9.226;2023-04-06T07:00:20;10.30;;;6.00;;
13204;SDS011;6667;52.634;9.226;2023-04-06T07:02:48;8.37;;;6.40;;
13204;SDS011;6667;52.634;9.226;2023-04-06T07:05:15;9.00;;;6.33;;
13204;SDS011;6667;52.634;9.226;2023-04-06T07:07:42;6.73;;;5.13;;
13204;SDS011;6667;52.634;9.226;2023-04-06T07:10:09;7.77;;;5.27;;
13204;SDS011;6667;52.634;9.226;2023-04-06T07:12:36;9.10;;;5.80;;
13204;SDS011;6667;52.634;9.226;2023-04-06T07:15:03;6.27;;;5.13;;
13204;SDS011;6667;52.634;9.226;2023-04-06T07:17:30;8.37;;;6.50;;
13204;SDS011;6667;52.634;9.226;2023-04-06T07:19:58;7.70;;;5.03;;
13204;SDS011;6667;52.634;9.226;2023-04-06T07:22:25;11.47;;;6.50;;
13204;SDS011;6667;52.634;9.226;2023-04-06T07:24:51;8.23;;;5.33;;
13204;SDS011;6667;52.634;9.226;2023-04-06T07:27:18;7.27;;;4.73;;
13204;SDS011;6667;52.634;9.226;2023-04-06T07:29:44;6.57;;;5.23;;
13204;SDS011;6667;52.634;9.226;2023-04-06T07:32:11;8.30;;;5.33;;
13204;SDS011;6667;52.634;9.226;2023-04-06T07:34:37;6.30;;;4.90;;
13204;SDS011;6667;52.634;9.226;2023-04-06T07:37:05;6.00;;;4.80;;
13204;SDS011;6667;52.634;9.226;2023-04-06T07:39:32;7.57;;;4.97;;
13204;SDS011;6667;52.634;9.226;2023-04-06T07:41:59;5.63;;;5.00;;
13204;SDS011;6667;52.634;9.226;2023-04-06T07:44:26;6.60;;;5.43;;
13204;SDS011;6667;52.634;9.226;2023-04-06T07:46:52;6.87;;;5.30;;
13204;SDS011;6667;52.634;9.226;2023-04-06T07:49:19;5.97;;;5.13;;
13204;SDS011;6667;52.634;9.226;2023-04-06T07:51:47;5.40;;;4.90;;
13204;SDS011;6667;52.634;9.226;2023-04-06T07:54:15;7.13;;;5.30;;
13204;SDS011;6667;52.634;9.226;2023-04-06T07:56:42;7.60;;;5.13;;
13204;SDS011;6667;52.634;9.226;2023-04-06T07:59:08;6.70;;;5.17;;
13204;SDS011;6667;52.634;9.226;2023-04-06T08:01:36;6.87;;;5.40;;
13204;SDS011;6667;52.634;9.226;2023-04-06T08:04:03;5.13;;;4.27;;
13204;SDS011;6667;52.634;9.226;2023-04-06T08:06:30;8.47;;;5.10;;
13204;SDS011;6667;52.634;9.226;2023-04-06T08:08:56;7.17;;;5.37;;
13204;SDS011;6667;52.634;9.226;2023-04-06T08:11:24;6.53;;;5.37;;
13204;SDS011;6667;52.634;9.226;2023-04-06T08:13:52;6.77;;;5.07;;
13204;SDS011;6667;52.634;9.226;2023-04-06T08:16:20;6.47;;;5.10;;
13204;SDS011;6667;52.634;9.226;2023-04-06T08:18:47;6.90;;;4.90;;
13204;SDS011;6667;52.634;9.226;2023-04-06T08:21:13;6.00;;;5.00;;
13204;SDS011;6667;52.634;9.226;2023-04-06T08:23:40;6.67;;;4.73;;
13204;SDS011;6667;52.634;9.226;2023-04-06T08:26:07;7.27;;;5.13;;
13204;SDS011;6667;52.634;9.226;2023-04-06T08:28:35;6.40;;;4.87;;
13204;SDS011;6667;52.634;9.226;2023-04-06T08:31:05;6.10;;;5.17;;
13204;SDS011;6667;52.634;9.226;2023-04-06T08:33:32;8.53;;;5.33;;
13204;SDS011;6667;52.634;9.226;2023-04-06T08:36:06;5.40;;;4.87;;
13204;SDS011;6667;52.634;9.226;2023-04-06T08:38:33;6.27;;;5.33;;
13204;SDS011;6667;52.634;9.226;2023-04-06T08:41:00;7.80;;;5.33;;
13204;SDS011;6667;52.634;9.226;2023-04-06T08:43:33;6.60;;;4.77;;
13204;SDS011;6667;52.634;9.226;2023-04-06T08:46:08;7.50;;;4.63;;
13204;SDS011;6667;52.634;9.226;2023-04-06T08:48:35;7.23;;;4.93;;
13204;SDS011;6667;52.634;9.226;2023-04-06T08:51:02;6.40;;;4.80;;
13204;SDS011;6667;52.634;9.226;2023-04-06T08:53:30;6.60;;;5.10;;
13204;SDS011;6667;52.634;9.226;2023-04-06T08:55:57;7.33;;;5.20;;
13204;SDS011;6667;52.634;9.226;2023-04-06T08:58:25;8.80;;;4.90;;
13204;SDS011;6667;52.634;9.226;2023-04-06T09:00:55;7.77;;;4.97;;
13204;SDS011;6667;52.634;9.226;2023-04-06T09:03:22;8.00;;;5.10;;
13204;SDS011;6667;52.634;9.226;2023-04-06T09:05:51;6.70;;;5.67;;
13204;SDS011;6667;52.634;9.226;2023-04-06T09:08:18;9.10;;;5.33;;
13204;SDS011;6667;52.634;9.226;2023-04-06T09:10:45;7.20;;;5.60;;
13204;SDS011;6667;52.634;9.226;2023-04-06T09:13:13;9.07;;;5.77;;
13204;SDS011;6667;52.634;9.226;2023-04-06T09:15:40;6.90;;;5.60;;
13204;SDS011;6667;52.634;9.226;2023-04-06T09:18:08;6.63;;;5.40;;
13204;SDS011;6667;52.634;9.226;2023-04-06T09:20:34;7.83;;;5.23;;
13204;SDS011;6667;52.634;9.226;2023-04-06T09:23:01;7.03;;;5.10;;
13204;SDS011;6667;52.634;9.226;2023-04-06T09:25:28;5.60;;;5.00;;
13204;SDS011;6667;52.634;9.226;2023-04-06T09:27:59;7.30;;;4.93;;
13204;SDS011;6667;52.634;9.226;2023-04-06T09:30:26;6.77;;;5.13;;
13204;SDS011;6667;52.634;9.226;2023-04-06T09:32:53;9.97;;;5.33;;
13204;SDS011;6667;52.634;9.226;2023-04-06T09:35:23;5.93;;;5.03;;
13204;SDS011;6667;52.634;9.226;2023-04-06T09:37:51;10.13;;;5.28;;
13204;SDS011;6667;52.634;9.226;2023-04-06T09:40:19;7.10;;;5.22;;
13204;SDS011;6667;52.634;9.226;2023-04-06T09:42:47;7.25;;;5.03;;
13204;SDS011;6667;52.634;9.226;2023-04-06T09:45:16;6.65;;;5.35;;
13204;SDS011;6667;52.634;9.226;2023-04-06T09:47:43;8.68;;;5.35;;
13204;SDS011;6667;52.634;9.226;2023-04-06T09:50:11;9.32;;;6.05;;
13204;SDS011;6667;52.634;9.226;2023-04-06T09:52:42;7.22;;;5.45;;
13204;SDS011;6667;52.634;9.226;2023-04-06T09:55:14;6.85;;;5.22;;
13204;SDS011;6667;52.634;9.226;2023-04-06T09:57:48;8.52;;;6.22;;
13204;SDS011;6667;52.634;9.226;2023-04-06T10:00:20;7.90;;;5.57;;
13204;SDS011;6667;52.634;9.226;2023-04-06T10:02:48;7.70;;;4.55;;
13204;SDS011;6667;52.634;9.226;2023-04-06T10:05:22;7.15;;;5.05;;
13204;SDS011;6667;52.634;9.226;2023-04-06T10:07:55;6.15;;;5.22;;
13204;SDS011;6667;52.634;9.226;2023-04-06T10:10:25;5.90;;;5.40;;
13204;SDS011;6667;52.634;9.226;2023-04-06T10:12:52;7.40;;;5.28;;
13204;SDS011;6667;52.634;9.226;2023-04-06T10:15:20;8.40;;;5.47;;
13204;SDS011;6667;52.634;9.226;2023-04-06T10:17:47;5.97;;;5.38;;
13204;SDS011;6667;52.634;9.226;2023-04-06T10:20:14;7.22;;;5.90;;
13204;SDS011;6667;52.634;9.226;2023-04-06T10:22:49;7.72;;;5.47;;
13204;SDS011;6667;52.634;9.226;2023-04-06T10:25:27;7.50;;;5.43;;
13204;SDS011;6667;52.634;9.226;2023-04-06T10:27:58;7.55;;;5.53;;
13204;SDS011;6667;52.634;9.226;2023-04-06T10:30:25;8.18;;;5.72;;
13204;SDS011;6667;52.634;9.226;2023-04-06T10:32:54;10.35;;;5.63;;
13204;SDS011;6667;52.634;9.226;2023-04-06T10:35:21;8.10;;;5.70;;
13204;SDS011;6667;52.634;9.226;2023-04-06T10:37:49;6.90;;;4.93;;
13204;SDS011;6667;52.634;9.226;2023-04-06T10:40:18;7.85;;;5.60;;
13204;SDS011;6667;52.634;9.226;2023-04-06T10:42:46;11.18;;;6.03;;
13204;SDS011;6667;52.634;9.226;2023-04-06T10:45:19;6.65;;;6.03;;
13204;SDS011;6667;52.634;9.226;2023-04-06T10:47:47;6.55;;;5.18;;
13204;SDS011;6667;52.634;9.226;2023-04-06T10:50:14;7.43;;;5.65;;
13204;SDS011;6667;52.634;9.226;2023-04-06T10:52:41;8.32;;;5.90;;
13204;SDS011;6667;52.634;9.226;2023-04-06T10:55:09;8.30;;;6.35;;
13204;SDS011;6667;52.634;9.226;2023-04-06T10:57:37;6.90;;;6.18;;
13204;SDS011;6667;52.634;9.226;2023-04-06T11:00:05;8.77;;;6.05;;
13204;SDS011;6667;52.634;9.226;2023-04-06T11:02:33;8.00;;;6.18;;
13204;SDS011;6667;52.634;9.226;2023-04-06T11:05:00;7.47;;;6.28;;
13204;SDS011;6667;52.634;9.226;2023-04-06T11:07:27;7.22;;;6.43;;
13204;SDS011;6667;52.634;9.226;2023-04-06T11:09:55;10.27;;;6.78;;
13204;SDS011;6667;52.634;9.226;2023-04-06T11:12:22;8.38;;;6.18;;
13204;SDS011;6667;52.634;9.226;2023-04-06T11:14:54;9.57;;;6.10;;
13204;SDS011;6667;52.634;9.226;2023-04-06T11:17:27;9.73;;;6.18;;
13204;SDS011;6667;52.634;9.226;2023-04-06T11:19:54;9.68;;;7.55;;
13204;SDS011;6667;52.634;9.226;2023-04-06T11:22:21;8.93;;;7.55;;
13204;SDS011;6667;52.634;9.226;2023-04-06T11:24:47;9.70;;;6.63;;
13204;SDS011;6667;52.634;9.226;2023-04-06T11:27:14;7.00;;;6.05;;
13204;SDS011;6667;52.634;9.226;2023-04-06T11:29:42;8.13;;;6.28;;
13204;SDS011;6667;52.634;9.226;2023-04-06T11:32:10;7.90;;;6.78;;
13204;SDS011;6667;52.634;9.226;2023-04-06T11:34:39;11.52;;;8.00;;
13204;SDS011;6667;52.634;9.226;2023-04-06T11:37:07;9.43;;;7.55;;
13204;SDS011;6667;52.634;9.226;2023-04-06T11:39:37;12.48;;;7.80;;
13204;SDS011;6667;52.634;9.226;2023-04-06T11:42:05;13.02;;;7.57;;
13204;SDS011;6667;52.634;9.226;2023-04-06T11:44:32;12.15;;;8.32;;
13204;SDS011;6667;52.634;9.226;2023-04-06T11:47:01;8.63;;;6.70;;
13204;SDS011;6667;52.634;9.226;2023-04-06T11:49:28;8.15;;;6.80;;
13204;SDS011;6667;52.634;9.226;2023-04-06T11:51:56;10.02;;;6.78;;
13204;SDS011;6667;52.634;9.226;2023-04-06T11:54:30;9.63;;;6.43;;
13204;SDS011;6667;52.634;9.226;2023-04-06T11:56:57;8.93;;;6.72;;
13204;SDS011;6667;52.634;9.226;2023-04-06T11:59:24;8.60;;;6.18;;
13204;SDS011;6667;52.634;9.226;2023-04-06T12:01:50;10.18;;;6.68;;
13204;SDS011;6667;52.634;9.226;2023-04-06T12:04:18;9.73;;;7.22;;
13204;SDS011;6667;52.634;9.226;2023-04-06T12:06:45;10.77;;;6.75;;
13204;SDS011;6667;52.634;9.226;2023-04-06T12:09:13;8.25;;;6.50;;
13204;SDS011;6667;52.634;9.226;2023-04-06T12:11:40;7.78;;;6.40;;
13204;SDS011;6667;52.634;9.226;2023-04-06T12:14:06;8.60;;;6.22;;
13204;SDS011;6667;52.634;9.226;2023-04-06T12:16:33;8.30;;;6.32;;
13204;SDS011;6667;52.634;9.226;2023-04-06T12:19:00;6.90;;;5.60;;
13204;SDS011;6667;52.634;9.226;2023-04-06T12:21:27;12.35;;;6.13;;
13204;SDS011;6667;52.634;9.226;2023-04-06T12:23:55;8.13;;;6.82;;
13204;SDS011;6667;52.634;9.226;2023-04-06T12:26:24;8.45;;;6.78;;
13204;SDS011;6667;52.634;9.226;2023-04-06T12:28:51;7.45;;;6.55;;
13204;SDS011;6667;52.634;9.226;2023-04-06T12:31:18;9.55;;;6.82;;
13204;SDS011;6667;52.634;9.226;2023-04-06T12:33:47;9.60;;;7.20;;
13204;SDS011;6667;52.634;9.226;2023-04-06T12:36:14;9.23;;;7.07;;
13204;SDS011;6667;52.634;9.226;2023-04-06T12:38:43;7.28;;;5.97;;
13204;SDS011;6667;52.634;9.226;2023-04-06T12:41:10;8.57;;;5.88;;
13204;SDS011;6667;52.634;9.226;2023-04-06T12:43:39;9.20;;;6.53;;
13204;SDS011;6667;52.634;9.226;2023-04-06T12:46:06;8.50;;;7.13;;
13204;SDS011;6667;52.634;9.226;2023-04-06T12:48:33;10.05;;;6.43;;
13204;SDS011;6667;52.634;9.226;2023-04-06T12:51:01;9.20;;;6.22;;
13204;SDS011;6667;52.634;9.226;2023-04-06T12:53:28;8.75;;;6.55;;
13204;SDS011;6667;52.634;9.226;2023-04-06T12:55:55;8.88;;;7.40;;
13204;SDS011;6667;52.634;9.226;2023-04-06T12:58:23;7.82;;;6.70;;
13204;SDS011;6667;52.634;9.226;2023-04-06T13:00:52;7.63;;;6.30;;
13204;SDS011;6667;52.634;9.226;2023-04-06T13:03:20;9.10;;;7.45;;
13204;SDS011;6667;52.634;9.226;2023-04-06T13:05:48;7.00;;;5.75;;
13204;SDS011;6667;52.634;9.226;2023-04-06T13:08:15;10.43;;;6.38;;
13204;SDS011;6667;52.634;9.226;2023-04-06T13:10:44;8.80;;;6.32;;
13204;SDS011;6667;52.634;9.226;2023-04-06T13:13:13;11.02;;;7.00;;
13204;SDS011;6667;52.634;9.226;2023-04-06T13:15:41;7.88;;;6.13;;
13204;SDS011;6667;52.634;9.226;2023-04-06T13:18:09;8.75;;;6.20;;
13204;SDS011;6667;52.634;9.226;2023-04-06T13:20:36;7.88;;;5.88;;
13204;SDS011;6667;52.634;9.226;2023-04-06T13:23:02;7.00;;;5.70;;
13204;SDS011;6667;52.634;9.226;2023-04-06T13:25:29;8.38;;;6.00;;
13204;SDS011;6667;52.634;9.226;2023-04-06T13:27:57;7.57;;;5.82;;
13204;SDS011;6667;52.634;9.226;2023-04-06T13:30:24;7.75;;;6.68;;
13204;SDS011;6667;52.634;9.226;2023-04-06T13:32:51;8.45;;;6.45;;
13204;SDS011;6667;52.634;9.226;2023-04-06T13:35:19;8.75;;;5.97;;
13204;SDS011;6667;52.634;9.226;2023-04-06T13:37:46;10.45;;;5.88;;
13204;SDS011;6667;52.634;9.226;2023-04-06T13:40:13;8.60;;;6.97;;
13204;SDS011;6667;52.634;9.226;2023-04-06T13:42:41;10.13;;;5.72;;
13204;SDS011;6667;52.634;9.226;2023-04-06T13:45:10;7.32;;;6.15;;
13204;SDS011;6667;52.634;9.226;2023-04-06T13:47:38;8.18;;;6.22;;
13204;SDS011;6667;52.634;9.226;2023-04-06T13:50:06;9.00;;;6.72;;
13204;SDS011;6667;52.634;9.226;2023-04-06T13:52:36;8.73;;;6.53;;
13204;SDS011;6667;52.634;9.226;2023-04-06T13:55:03;8.07;;;6.50;;
13204;SDS011;6667;52.634;9.226;2023-04-06T13:57:31;9.05;;;6.32;;
13204;SDS011;6667;52.634;9.226;2023-04-06T13:59:58;10.63;;;6.68;;
13204;SDS011;6667;52.634;9.226;2023-04-06T14:02:26;8.65;;;7.35;;
13204;SDS011;6667;52.634;9.226;2023-04-06T14:04:53;9.93;;;6.88;;
13204;SDS011;6667;52.634;9.226;2023-04-06T14:07:20;8.25;;;6.82;;
13204;SDS011;6667;52.634;9.226;2023-04-06T14:09:49;11.23;;;7.75;;
13204;SDS011;6667;52.634;9.226;2023-04-06T14:12:16;9.00;;;6.90;;
13204;SDS011;6667;52.634;9.226;2023-04-06T14:14:44;9.35;;;6.82;;
13204;SDS011;6667;52.634;9.226;2023-04-06T14:17:11;9.57;;;7.07;;
13204;SDS011;6667;52.634;9.226;2023-04-06T14:19:39;10.73;;;6.68;;
13204;SDS011;6667;52.634;9.226;2023-04-06T14:22:05;10.73;;;6.53;;
13204;SDS011;6667;52.634;9.226;2023-04-06T14:24:33;7.57;;;6.60;;
13204;SDS011;6667;52.634;9.226;2023-04-06T14:27:02;7.80;;;5.50;;
13204;SDS011;6667;52.634;9.226;2023-04-06T14:29:28;6.40;;;5.47;;
13204;SDS011;6667;52.634;9.226;2023-04-06T14:31:55;10.90;;;7.90;;
13204;SDS011;6667;52.634;9.226;2023-04-06T14:34:24;8.98;;;5.97;;
13204;SDS011;6667;52.634;9.226;2023-04-06T14:36:51;10.23;;;6.32;;
13204;SDS011;6667;52.634;9.226;2023-04-06T14:39:18;8.68;;;5.82;;
13204;SDS011;6667;52.634;9.226;2023-04-06T14:41:45;8.02;;;5.82;;
13204;SDS011;6667;52.634;9.226;2023-04-06T14:44:14;8.98;;;6.95;;
13204;SDS011;6667;52.634;9.226;2023-04-06T14:46:42;7.80;;;5.65;;
13204;SDS011;6667;52.634;9.226;2023-04-06T14:49:09;9.85;;;6.82;;
13204;SDS011;6667;52.634;9.226;2023-04-06T14:51:36;9.65;;;6.50;;
13204;SDS011;6667;52.634;9.226;2023-04-06T14:54:03;8.43;;;6.43;;
13204;SDS011;6667;52.634;9.226;2023-04-06T14:56:30;10.63;;;6.18;;
13204;SDS011;6667;52.634;9.226;2023-04-06T14:58:57;7.82;;;5.72;;
13204;SDS011;6667;52.634;9.226;2023-04-06T15:01:25;10.07;;;6.82;;
13204;SDS011;6667;52.634;9.226;2023-04-06T15:03:52;9.70;;;6.97;;
13204;SDS011;6667;52.634;9.226;2023-04-06T15:06:19;7.28;;;6.28;;
13204;SDS011;6667;52.634;9.226;2023-04-06T15:08:46;10.55;;;6.63;;
13204;SDS011;6667;52.634;9.226;2023-04-06T15:11:13;7.95;;;6.05;;
13204;SDS011;6667;52.634;9.226;2023-04-06T15:13:40;7.95;;;6.00;;
13204;SDS011;6667;52.634;9.226;2023-04-06T15:16:07;8.40;;;5.95;;
13204;SDS011;6667;52.634;9.226;2023-04-06T15:18:35;8.77;;;6.65;;
13204;SDS011;6667;52.634;9.226;2023-04-06T15:21:02;7.97;;;6.53;;
13204;SDS011;6667;52.634;9.226;2023-04-06T15:23:29;7.68;;;5.82;;
13204;SDS011;6667;52.634;9.226;2023-04-06T15:25:55;10.50;;;6.53;;
13204;SDS011;6667;52.634;9.226;2023-04-06T15:28:22;8.82;;;6.22;;
13204;SDS011;6667;52.634;9.226;2023-04-06T15:30:49;9.05;;;6.78;;
13204;SDS011;6667;52.634;9.226;2023-04-06T15:33:15;9.10;;;6.88;;
13204;SDS011;6667;52.634;9.226;2023-04-06T15:35:44;10.32;;;6.32;;
13204;SDS011;6667;52.634;9.226;2023-04-06T15:38:11;7.65;;;6.13;;
13204;SDS011;6667;52.634;9.226;2023-04-06T15:40:41;10.88;;;6.30;;
13204;SDS011;6667;52.634;9.226;2023-04-06T15:43:09;12.05;;;7.55;;
13204;SDS011;6667;52.634;9.226;2023-04-06T15:45:36;9.32;;;6.63;;
13204;SDS011;6667;52.634;9.226;2023-04-06T15:48:03;9.85;;;6.70;;
13204;SDS011;6667;52.634;9.226;2023-04-06T15:50:30;10.40;;;7.20;;
13204;SDS011;6667;52.634;9.226;2023-04-06T15:52:58;11.80;;;7.75;;
13204;SDS011;6667;52.634;9.226;2023-04-06T15:55:25;9.68;;;6.40;;
13204;SDS011;6667;52.634;9.226;2023-04-06T15:57:51;11.05;;;7.57;;
13204;SDS011;6667;52.634;9.226;2023-04-06T16:00:18;9.73;;;6.97;;
13204;SDS011;6667;52.634;9.226;2023-04-06T16:02:45;10.50;;;6.50;;
13204;SDS011;6667;52.634;9.226;2023-04-06T16:05:12;10.40;;;6.67;;
13204;SDS011;6667;52.634;9.226;2023-04-06T16:07:39;10.80;;;7.07;;
13204;SDS011;6667;52.634;9.226;2023-04-06T16:10:08;9.50;;;6.90;;
13204;SDS011;6667;52.634;9.226;2023-04-06T16:12:35;9.90;;;6.13;;
13204;SDS011;6667;52.634;9.226;2023-04-06T16:15:04;9.17;;;6.60;;
13204;SDS011;6667;52.634;9.226;2023-04-06T16:17:31;10.53;;;6.70;;
13204;SDS011;6667;52.634;9.226;2023-04-06T16:19:58;9.98;;;6.40;;
13204;SDS011;6667;52.634;9.226;2023-04-06T16:22:25;9.57;;;6.80;;
13204;SDS011;6667;52.634;9.226;2023-04-06T16:24:52;11.23;;;7.50;;
13204;SDS011;6667;52.634;9.226;2023-04-06T16:27:20;9.93;;;7.33;;
13204;SDS011;6667;52.634;9.226;2023-04-06T16:29:47;9.90;;;6.40;;
13204;SDS011;6667;52.634;9.226;2023-04-06T16:32:13;11.23;;;7.23;;
13204;SDS011;6667;52.634;9.226;2023-04-06T16:34:40;12.70;;;7.43;;
13204;SDS011;6667;52.634;9.226;2023-04-06T16:37:07;12.10;;;7.50;;
13204;SDS011;6667;52.634;9.226;2023-04-06T16:39:33;11.80;;;8.03;;
13204;SDS011;6667;52.634;9.226;2023-04-06T16:42:00;10.53;;;7.53;;
13204;SDS011;6667;52.634;9.226;2023-04-06T16:44:28;8.13;;;6.43;;
13204;SDS011;6667;52.634;9.226;2023-04-06T16:46:55;15.23;;;8.17;;
13204;SDS011;6667;52.634;9.226;2023-04-06T16:49:21;11.10;;;6.70;;
13204;SDS011;6667;52.634;9.226;2023-04-06T16:51:48;11.53;;;6.93;;
13204;SDS011;6667;52.634;9.226;2023-04-06T16:54:15;9.20;;;6.47;;
13204;SDS011;6667;52.634;9.226;2023-04-06T16:56:42;9.57;;;7.30;;
13204;SDS011;6667;52.634;9.226;2023-04-06T16:59:09;11.53;;;7.47;;
13204;SDS011;6667;52.634;9.226;2023-04-06T17:01:37;10.90;;;7.13;;
13204;SDS011;6667;52.634;9.226;2023-04-06T17:04:03;10.87;;;7.40;;
13204;SDS011;6667;52.634;9.226;2023-04-06T17:06:30;12.13;;;7.17;;
13204;SDS011;6667;52.634;9.226;2023-04-06T17:08:57;13.20;;;7.43;;
13204;SDS011;6667;52.634;9.226;2023-04-06T17:11:24;10.13;;;6.73;;
13204;SDS011;6667;52.634;9.226;2023-04-06T17:13:51;9.30;;;6.70;;
13204;SDS011;6667;52.634;9.226;2023-04-06T17:16:17;12.67;;;6.67;;
13204;SDS011;6667;52.634;9.226;2023-04-06T17:18:46;9.63;;;6.00;;
13204;SDS011;6667;52.634;9.226;2023-04-06T17:21:12;10.93;;;6.70;;
13204;SDS011;6667;52.634;9.226;2023-04-06T17:23:41;10.33;;;6.30;;
13204;SDS011;6667;52.634;9.226;2023-04-06T17:26:11;9.10;;;5.70;;
13204;SDS011;6667;52.634;9.226;2023-04-06T17:28:38;9.67;;;6.67;;
13204;SDS011;6667;52.634;9.226;2023-04-06T17:31:06;11.23;;;6.50;;
13204;SDS011;6667;52.634;9.226;2023-04-06T17:33:35;10.27;;;6.67;;
13204;SDS011;6667;52.634;9.226;2023-04-06T17:36:04;8.87;;;5.70;;
13204;SDS011;6667;52.634;9.226;2023-04-06T17:38:34;11.23;;;5.40;;
13204;SDS011;6667;52.634;9.226;2023-04-06T17:41:02;8.30;;;6.17;;
13204;SDS011;6667;52.634;9.226;2023-04-06T17:43:31;8.53;;;5.70;;
13204;SDS011;6667;52.634;9.226;2023-04-06T17:45:59;9.13;;;6.27;;
13204;SDS011;6667;52.634;9.226;2023-04-06T17:48:26;8.50;;;5.80;;
13204;SDS011;6667;52.634;9.226;2023-04-06T17:50:54;8.80;;;5.80;;
13204;SDS011;6667;52.634;9.226;2023-04-06T17:53:22;7.63;;;5.37;;
13204;SDS011;6667;52.634;9.226;2023-04-06T17:55:50;10.63;;;5.30;;
13204;SDS011;6667;52.634;9.226;2023-04-06T17:58:18;7.63;;;5.07;;
13204;SDS011;6667;52.634;9.226;2023-04-06T18:00:46;8.13;;;5.00;;
13204;SDS011;6667;52.634;9.226;2023-04-06T18:03:13;6.17;;;5.07;;
13204;SDS011;6667;52.634;9.226;2023-04-06T18:05:41;9.20;;;5.73;;
13204;SDS011;6667;52.634;9.226;2023-04-06T18:08:08;8.47;;;5.00;;
13204;SDS011;6667;52.634;9.226;2023-04-06T18:10:38;8.07;;;5.33;;
13204;SDS011;6667;52.634;9.226;2023-04-06T18:13:06;9.93;;;5.63;;
13204;SDS011;6667;52.634;9.226;2023-04-06T18:15:34;8.60;;;5.50;;
13204;SDS011;6667;52.634;9.226;2023-04-06T18:18:02;7.97;;;5.37;;
13204;SDS011;6667;52.634;9.226;2023-04-06T18:20:31;8.47;;;5.77;;
13204;SDS011;6667;52.634;9.226;2023-04-06T18:22:59;9.57;;;5.47;;
13204;SDS011;6667;52.634;9.226;2023-04-06T18:25:26;8.87;;;5.70;;
13204;SDS011;6667;52.634;9.226;2023-04-06T18:27:55;7.77;;;6.27;;
13204;SDS011;6667;52.634;9.226;2023-04-06T18:30:22;10.17;;;6.13;;
13204;SDS011;6667;52.634;9.226;2023-04-06T18:32:50;9.43;;;6.33;;
13204;SDS011;6667;52.634;9.226;2023-04-06T18:35:18;10.20;;;6.20;;
13204;SDS011;6667;52.634;9.226;2023-04-06T18:37:45;13.27;;;6.97;;
13204;SDS011;6667;52.634;9.226;2023-04-06T18:43:00;8.87;;;6.53;;
13204;SDS011;6667;52.634;9.226;2023-04-06T18:45:30;9.00;;;6.33;;
13204;SDS011;6667;52.634;9.226;2023-04-06T18:47:59;8.90;;;5.70;;
13204;SDS011;6667;52.634;9.226;2023-04-06T18:50:29;10.67;;;6.30;;
13204;SDS011;6667;52.634;9.226;2023-04-06T18:53:05;11.23;;;6.07;;
13204;SDS011;6667;52.634;9.226;2023-04-06T18:55:33;10.17;;;6.57;;
13204;SDS011;6667;52.634;9.226;2023-04-06T18:58:02;11.10;;;6.33;;
13204;SDS011;6667;52.634;9.226;2023-04-06T19:00:30;12.23;;;7.03;;
13204;SDS011;6667;52.634;9.226;2023-04-06T19:02:57;10.80;;;6.43;;
13204;SDS011;6667;52.634;9.226;2023-04-06T19:05:24;8.70;;;6.30;;
13204;SDS011;6667;52.634;9.226;2023-04-06T19:07:51;8.43;;;6.43;;
13204;SDS011;6667;52.634;9.226;2023-04-06T19:10:18;10.73;;;6.00;;
13204;SDS011;6667;52.634;9.226;2023-04-06T19:12:45;12.27;;;6.27;;
13204;SDS011;6667;52.634;9.226;2023-04-06T19:15:14;9.53;;;6.87;;
13204;SDS011;6667;52.634;9.226;2023-04-06T19:17:41;10.20;;;6.47;;
13204;SDS011;6667;52.634;9.226;2023-04-06T19:20:08;11.37;;;6.80;;
13204;SDS011;6667;52.634;9.226;2023-04-06T19:22:35;12.57;;;6.90;;
13204;SDS011;6667;52.634;9.226;2023-04-06T19:25:02;9.60;;;6.90;;
13204;SDS011;6667;52.634;9.226;2023-04-06T19:27:29;16.17;;;9.83;;
13204;SDS011;6667;52.634;9.226;2023-04-06T19:29:56;17.00;;;9.93;;
13204;SDS011;6667;52.634;9.226;2023-04-06T19:32:24;13.17;;;7.50;;
13204;SDS011;6667;52.634;9.226;2023-04-06T19:34:51;12.77;;;6.97;;
13204;SDS011;6667;52.634;9.226;2023-04-06T19:37:18;12.10;;;7.47;;
13204;SDS011;6667;52.634;9.226;2023-04-06T19:39:44;12.30;;;7.80;;
13204;SDS011;6667;52.634;9.226;2023-04-06T19:42:11;12.07;;;7.53;;
13204;SDS011;6667;52.634;9.226;2023-04-06T19:44:39;9.47;;;6.37;;
13204;SDS011;6667;52.634;9.226;2023-04-06T19:47:06;11.37;;;6.80;;
13204;SDS011;6667;52.634;9.226;2023-04-06T19:49:34;10.27;;;6.83;;
13204;SDS011;6667;52.634;9.226;2023-04-06T19:52:02;10.07;;;6.33;;
13204;SDS011;6667;52.634;9.226;2023-04-06T19:54:28;15.10;;;7.30;;
13204;SDS011;6667;52.634;9.226;2023-04-06T19:56:55;10.33;;;6.50;;
13204;SDS011;6667;52.634;9.226;2023-04-06T19:59:22;12.37;;;7.93;;
13204;SDS011;6667;52.634;9.226;2023-04-06T20:01:49;11.03;;;6.60;;
13204;SDS011;6667;52.634;9.226;2023-04-06T20:04:16;10.90;;;6.63;;
13204;SDS011;6667;52.634;9.226;2023-04-06T20:06:45;11.30;;;6.53;;
13204;SDS011;6667;52.634;9.226;2023-04-06T20:09:12;12.13;;;6.73;;
13204;SDS011;6667;52.634;9.226;2023-04-06T20:11:41;12.47;;;6.80;;
13204;SDS011;6667;52.634;9.226;2023-04-06T20:14:09;9.20;;;7.13;;
13204;SDS011;6667;52.634;9.226;2023-04-06T20:16:36;8.47;;;6.53;;
13204;SDS011;6667;52.634;9.226;2023-04-06T20:19:03;12.13;;;6.73;;
13204;SDS011;6667;52.634;9.226;2023-04-06T20:21:29;11.07;;;7.03;;
13204;SDS011;6667;52.634;9.226;2023-04-06T20:23:57;11.67;;;7.20;;
13204;SDS011;6667;52.634;9.226;2023-04-06T20:26:24;8.53;;;6.33;;
13204;SDS011;6667;52.634;9.226;2023-04-06T20:28:51;12.97;;;7.47;;
13204;SDS011;6667;52.634;9.226;2023-04-06T20:31:17;10.20;;;6.97;;
13204;SDS011;6667;52.634;9.226;2023-04-06T20:33:44;11.63;;;7.10;;
13204;SDS011;6667;52.634;9.226;2023-04-06T20:36:11;10.63;;;5.97;;
13204;SDS011;6667;52.634;9.226;2023-04-06T20:38:37;11.83;;;6.83;;
13204;SDS011;6667;52.634;9.226;2023-04-06T20:41:07;10.23;;;6.33;;
13204;SDS011;6667;52.634;9.226;2023-04-06T20:43:34;9.53;;;6.40;;
13204;SDS011;6667;52.634;9.226;2023-04-06T20:46:00;10.43;;;6.80;;
13204;SDS011;6667;52.634;9.226;2023-04-06T20:48:27;10.60;;;6.47;;
13204;SDS011;6667;52.634;9.226;2023-04-06T20:50:55;12.40;;;7.03;;
13204;SDS011;6667;52.634;9.226;2023-04-06T20:53:22;8.70;;;6.30;;
13204;SDS011;6667;52.634;9.226;2023-04-06T20:55:48;8.70;;;6.13;;
13204;SDS011;6667;52.634;9.226;2023-04-06T20:58:16;10.00;;;7.07;;
13204;SDS011;6667;52.634;9.226;2023-04-06T21:00:44;9.90;;;6.77;;
13204;SDS011;6667;52.634;9.226;2023-04-06T21:03:11;9.17;;;6.37;;
13204;SDS011;6667;52.634;9.226;2023-04-06T21:05:38;10.63;;;5.97;;
13204;SDS011;6667;52.634;9.226;2023-04-06T21:08:05;9.37;;;6.40;;
13204;SDS011;6667;52.634;9.226;2023-04-06T21:10:32;9.83;;;6.40;;
13204;SDS011;6667;52.634;9.226;2023-04-06T21:12:59;8.50;;;6.07;;
13204;SDS011;6667;52.634;9.226;2023-04-06T21:15:26;9.03;;;6.00;;